sensor_id;sensor_type;location;lat;lon;timestamp;temperature;humidity
15241;DHT22;7723;52.170;9.978;2023-02-01T00:02:26;4.70;99.90
15241;DHT22;7723;52.170;9.978;2023-02-01T00:04:55;4.70;99.90
15241;DHT22;7723;52.170;9.978;2023-02-01T00:07:22;4.70;99.90
15241;DHT22;7723;52.170;9.978;2023-02-01T00:09:49;4.70;99.90
15241;DHT22;7723;52.170;9.978;2023-02-01T00:12:16;4.70;99.90
15241;DHT22;7723;52.170;9.978;2023-02-01T00:14:43;4.70;99.90
15241;DHT22;7723;52.170;9.978;2023-02-01T00:17:10;4.70;99.90
15241;DHT22;7723;52.170;9.978;2023-02-01T00:19:38;4.70;99.90
15241;DHT22;7723;52.170;9.978;2023-02-01T00:22:06;4.70;99.90
15241;DHT22;7723;52.170;9.978;2023-02-01T00:24:33;4.60;99.90
15241;DHT22;7723;52.170;9.978;2023-02-01T00:27:00;4.60;99.90
15241;DHT22;7723;52.170;9.978;2023-02-01T00:29:27;4.50;99.90
15241;DHT22;7723;52.170;9.978;2023-02-01T00:31:55;4.60;99.90
15241;DHT22;7723;52.170;9.978;2023-02-01T00:34:22;4.60;99.90
15241;DHT22;7723;52.170;9.978;2023-02-01T00:36:50;4.50;99.90
15241;DHT22;7723;52.170;9.978;2023-02-01T00:39:18;4.50;99.90
15241;DHT22;7723;52.170;9.978;2023-02-01T00:41:45;4.50;99.90
15241;DHT22;7723;52.170;9.978;2023-02-01T00:44:12;4.50;99.90
15241;DHT22;7723;52.170;9.978;2023-02-01T00:46:40;4.50;99.90
15241;DHT22;7723;52.170;9.978;2023-02-01T00:49:07;4.50;99.90
15241;DHT22;7723;52.170;9.978;2023-02-01T00:51:35;4.40;99.90
15241;DHT22;7723;52.170;9.978;2023-02-01T00:54:02;4.40;99.90
15241;DHT22;7723;52.170;9.978;2023-02-01T00:56:31;4.30;99.90
15241;DHT22;7723;52.170;9.978;2023-02-01T00:58:58;4.30;99.90
15241;DHT22;7723;52.170;9.978;2023-02-01T01:01:26;4.40;99.90
15241;DHT22;7723;52.170;9.978;2023-02-01T01:03:55;4.30;99.90
15241;DHT22;7723;52.170;9.978;2023-02-01T01:06:24;4.30;99.90
15241;DHT22;7723;52.170;9.978;2023-02-01T01:08:52;4.30;99.90
15241;DHT22;7723;52.170;9.978;2023-02-01T01:11:22;4.30;99.90
15241;DHT22;7723;52.170;9.978;2023-02-01T01:13:52;4.30;99.90
15241;DHT22;7723;52.170;9.978;2023-02-01T01:16:20;4.30;99.90
15241;DHT22;7723;52.170;9.978;2023-02-01T01:18:48;4.20;99.90
15241;DHT22;7723;52.170;9.978;2023-02-01T01:21:16;4.20;99.90
15241;DHT22;7723;52.170;9.978;2023-02-01T01:23:44;4.20;99.90
15241;DHT22;7723;52.170;9.978;2023-02-01T01:26:14;4.20;99.90
15241;DHT22;7723;52.170;9.978;2023-02-01T01:28:41;4.20;99.90
15241;DHT22;7723;52.170;9.978;2023-02-01T01:31:10;4.20;99.90
15241;DHT22;7723;52.170;9.978;2023-02-01T01:33:38;4.30;99.90
15241;DHT22;7723;52.170;9.978;2023-02-01T01:36:05;4.20;99.90
15241;DHT22;7723;52.170;9.978;2023-02-01T01:38:32;4.20;99.90
15241;DHT22;7723;52.170;9.978;2023-02-01T01:41:00;4.20;99.90
15241;DHT22;7723;52.170;9.978;2023-02-01T01:43:46;4.20;99.90
15241;DHT22;7723;52.170;9.978;2023-02-01T01:46:17;4.20;99.90
15241;DHT22;7723;52.170;9.978;2023-02-01T01:48:46;4.20;99.90
15241;DHT22;7723;52.170;9.978;2023-02-01T01:51:17;4.20;99.90
15241;DHT22;7723;52.170;9.978;2023-02-01T01:53:57;4.20;99.90
15241;DHT22;7723;52.170;9.978;2023-02-01T01:56:25;4.20;99.90
15241;DHT22;7723;52.170;9.978;2023-02-01T01:58:54;4.20;99.90
15241;DHT22;7723;52.170;9.978;2023-02-01T02:01:24;4.20;99.90
15241;DHT22;7723;52.170;9.978;2023-02-01T02:03:51;4.20;99.90
15241;DHT22;7723;52.170;9.978;2023-02-01T02:06:30;4.20;99.90
15241;DHT22;7723;52.170;9.978;2023-02-01T02:08:59;4.20;99.90
15241;DHT22;7723;52.170;9.978;2023-02-01T02:11:27;4.20;99.90
15241;DHT22;7723;52.170;9.978;2023-02-01T02:13:55;4.20;99.90
15241;DHT22;7723;52.170;9.978;2023-02-01T02:16:52;4.20;99.90
15241;DHT22;7723;52.170;9.978;2023-02-01T02:19:39;4.20;99.90
15241;DHT22;7723;52.170;9.978;2023-02-01T02:22:31;4.10;99.90
15241;DHT22;7723;52.170;9.978;2023-02-01T02:25:22;4.20;99.90
15241;DHT22;7723;52.170;9.978;2023-02-01T02:28:02;4.20;99.90
15241;DHT22;7723;52.170;9.978;2023-02-01T02:30:44;4.20;99.90
15241;DHT22;7723;52.170;9.978;2023-02-01T02:33:48;4.30;99.90
15241;DHT22;7723;52.170;9.978;2023-02-01T02:36:24;4.30;99.90
15241;DHT22;7723;52.170;9.978;2023-02-01T02:39:03;4.30;99.90
15241;DHT22;7723;52.170;9.978;2023-02-01T02:41:42;4.30;99.90
15241;DHT22;7723;52.170;9.978;2023-02-01T02:44:33;4.40;99.90
15241;DHT22;7723;52.170;9.978;2023-02-01T02:47:24;4.50;99.90
15241;DHT22;7723;52.170;9.978;2023-02-01T02:50:05;4.50;99.90
15241;DHT22;7723;52.170;9.978;2023-02-01T02:52:57;4.50;99.90
15241;DHT22;7723;52.170;9.978;2023-02-01T02:55:43;4.50;99.90
15241;DHT22;7723;52.170;9.978;2023-02-01T02:58:12;4.60;99.90
15241;DHT22;7723;52.170;9.978;2023-02-01T03:00:57;4.70;99.90
15241;DHT22;7723;52.170;9.978;2023-02-01T03:03:43;4.70;99.90
15241;DHT22;7723;52.170;9.978;2023-02-01T03:06:32;4.70;99.90
15241;DHT22;7723;52.170;9.978;2023-02-01T03:09:02;4.70;99.90
15241;DHT22;7723;52.170;9.978;2023-02-01T03:11:32;4.70;99.90
15241;DHT22;7723;52.170;9.978;2023-02-01T03:14:14;4.70;99.90
15241;DHT22;7723;52.170;9.978;2023-02-01T03:16:47;4.70;99.90
15241;DHT22;7723;52.170;9.978;2023-02-01T03:19:21;4.70;99.90
15241;DHT22;7723;52.170;9.978;2023-02-01T03:21:51;4.70;99.90
15241;DHT22;7723;52.170;9.978;2023-02-01T03:24:23;4.80;99.90
15241;DHT22;7723;52.170;9.978;2023-02-01T03:27:03;4.80;99.90
15241;DHT22;7723;52.170;9.978;2023-02-01T03:29:38;4.80;99.90
15241;DHT22;7723;52.170;9.978;2023-02-01T03:32:06;4.80;99.90
15241;DHT22;7723;52.170;9.978;2023-02-01T03:34:35;4.80;99.90
15241;DHT22;7723;52.170;9.978;2023-02-01T03:37:06;4.80;99.90
15241;DHT22;7723;52.170;9.978;2023-02-01T03:39:39;4.80;99.90
15241;DHT22;7723;52.170;9.978;2023-02-01T03:42:14;4.90;99.90
15241;DHT22;7723;52.170;9.978;2023-02-01T03:44:48;4.90;99.90
15241;DHT22;7723;52.170;9.978;2023-02-01T03:47:19;4.90;99.90
15241;DHT22;7723;52.170;9.978;2023-02-01T03:49:50;4.90;99.90
15241;DHT22;7723;52.170;9.978;2023-02-01T03:52:25;4.90;99.90
15241;DHT22;7723;52.170;9.978;2023-02-01T03:54:53;4.90;99.90
15241;DHT22;7723;52.170;9.978;2023-02-01T03:57:23;4.90;99.90
15241;DHT22;7723;52.170;9.978;2023-02-01T03:59:52;4.80;99.90
15241;DHT22;7723;52.170;9.978;2023-02-01T04:02:19;4.80;99.90
15241;DHT22;7723;52.170;9.978;2023-02-01T04:04:46;4.80;99.90
15241;DHT22;7723;52.170;9.978;2023-02-01T04:07:13;4.70;99.90
15241;DHT22;7723;52.170;9.978;2023-02-01T04:09:44;4.70;99.90
15241;DHT22;7723;52.170;9.978;2023-02-01T04:12:11;4.70;99.90
15241;DHT22;7723;52.170;9.978;2023-02-01T04:14:38;4.60;99.90
15241;DHT22;7723;52.170;9.978;2023-02-01T04:17:05;4.60;99.90
15241;DHT22;7723;52.170;9.978;2023-02-01T04:19:32;4.50;99.90
15241;DHT22;7723;52.170;9.978;2023-02-01T04:21:59;4.50;99.90
15241;DHT22;7723;52.170;9.978;2023-02-01T04:24:26;4.50;99.90
15241;DHT22;7723;52.170;9.978;2023-02-01T04:26:55;4.50;99.90
15241;DHT22;7723;52.170;9.978;2023-02-01T04:29:22;4.50;99.90
15241;DHT22;7723;52.170;9.978;2023-02-01T04:31:49;4.50;99.90
15241;DHT22;7723;52.170;9.978;2023-02-01T04:34:16;4.60;99.90
15241;DHT22;7723;52.170;9.978;2023-02-01T04:36:43;4.60;99.90
15241;DHT22;7723;52.170;9.978;2023-02-01T04:39:10;4.60;99.90
15241;DHT22;7723;52.170;9.978;2023-02-01T04:41:37;4.60;99.90
15241;DHT22;7723;52.170;9.978;2023-02-01T04:44:06;4.60;99.90
15241;DHT22;7723;52.170;9.978;2023-02-01T04:46:34;4.60;99.90
15241;DHT22;7723;52.170;9.978;2023-02-01T04:49:01;4.70;99.90
15241;DHT22;7723;52.170;9.978;2023-02-01T04:51:28;4.80;99.90
15241;DHT22;7723;52.170;9.978;2023-02-01T04:53:55;4.80;99.90
15241;DHT22;7723;52.170;9.978;2023-02-01T04:56:23;4.80;99.90
15241;DHT22;7723;52.170;9.978;2023-02-01T04:58:50;4.90;99.90
15241;DHT22;7723;52.170;9.978;2023-02-01T05:01:18;4.90;99.90
15241;DHT22;7723;52.170;9.978;2023-02-01T05:03:46;4.90;99.90
15241;DHT22;7723;52.170;9.978;2023-02-01T05:06:13;5.00;99.90
15241;DHT22;7723;52.170;9.978;2023-02-01T05:08:40;5.00;99.90
15241;DHT22;7723;52.170;9.978;2023-02-01T05:11:07;5.00;99.90
15241;DHT22;7723;52.170;9.978;2023-02-01T05:13:55;5.00;99.90
15241;DHT22;7723;52.170;9.978;2023-02-01T05:16:23;5.00;99.90
15241;DHT22;7723;52.170;9.978;2023-02-01T05:18:50;4.90;99.90
15241;DHT22;7723;52.170;9.978;2023-02-01T05:21:17;4.90;99.90
15241;DHT22;7723;52.170;9.978;2023-02-01T05:23:44;4.90;99.90
15241;DHT22;7723;52.170;9.978;2023-02-01T05:26:29;4.80;99.90
15241;DHT22;7723;52.170;9.978;2023-02-01T05:28:56;4.70;99.90
15241;DHT22;7723;52.170;9.978;2023-02-01T05:31:24;4.70;99.90
15241;DHT22;7723;52.170;9.978;2023-02-01T05:33:52;4.80;99.90
15241;DHT22;7723;52.170;9.978;2023-02-01T05:36:19;4.80;99.90
15241;DHT22;7723;52.170;9.978;2023-02-01T05:38:46;4.70;99.90
15241;DHT22;7723;52.170;9.978;2023-02-01T05:41:13;4.70;99.90
15241;DHT22;7723;52.170;9.978;2023-02-01T05:43:41;4.70;99.90
15241;DHT22;7723;52.170;9.978;2023-02-01T05:46:08;4.70;99.90
15241;DHT22;7723;52.170;9.978;2023-02-01T05:48:39;4.70;99.90
15241;DHT22;7723;52.170;9.978;2023-02-01T05:51:07;4.80;99.90
15241;DHT22;7723;52.170;9.978;2023-02-01T05:53:35;4.80;99.90
15241;DHT22;7723;52.170;9.978;2023-02-01T05:56:02;4.80;99.90
15241;DHT22;7723;52.170;9.978;2023-02-01T05:58:32;4.80;99.90
15241;DHT22;7723;52.170;9.978;2023-02-01T06:00:59;4.80;99.90
15241;DHT22;7723;52.170;9.978;2023-02-01T06:03:27;4.80;99.90
15241;DHT22;7723;52.170;9.978;2023-02-01T06:05:56;4.80;99.90
15241;DHT22;7723;52.170;9.978;2023-02-01T06:08:23;4.80;99.90
15241;DHT22;7723;52.170;9.978;2023-02-01T06:10:51;4.80;99.90
15241;DHT22;7723;52.170;9.978;2023-02-01T06:13:23;4.90;99.90
15241;DHT22;7723;52.170;9.978;2023-02-01T06:15:50;4.90;99.90
15241;DHT22;7723;52.170;9.978;2023-02-01T06:18:18;5.00;99.90
15241;DHT22;7723;52.170;9.978;2023-02-01T06:20:45;4.90;99.90
15241;DHT22;7723;52.170;9.978;2023-02-01T06:23:13;4.90;99.90
15241;DHT22;7723;52.170;9.978;2023-02-01T06:25:40;4.80;99.90
15241;DHT22;7723;52.170;9.978;2023-02-01T06:28:07;4.80;99.90
15241;DHT22;7723;52.170;9.978;2023-02-01T06:30:34;4.80;99.90
15241;DHT22;7723;52.170;9.978;2023-02-01T06:33:02;4.70;99.90
15241;DHT22;7723;52.170;9.978;2023-02-01T06:35:29;4.70;99.90
15241;DHT22;7723;52.170;9.978;2023-02-01T06:37:56;4.70;99.90
15241;DHT22;7723;52.170;9.978;2023-02-01T06:40:25;4.60;99.90
15241;DHT22;7723;52.170;9.978;2023-02-01T06:42:52;4.70;99.90
15241;DHT22;7723;52.170;9.978;2023-02-01T06:45:19;4.70;99.90
15241;DHT22;7723;52.170;9.978;2023-02-01T06:47:46;4.70;99.90
15241;DHT22;7723;52.170;9.978;2023-02-01T06:50:13;4.70;99.90
15241;DHT22;7723;52.170;9.978;2023-02-01T06:52:41;4.60;99.90
15241;DHT22;7723;52.170;9.978;2023-02-01T06:55:08;4.50;99.90
15241;DHT22;7723;52.170;9.978;2023-02-01T06:57:37;4.50;99.90
15241;DHT22;7723;52.170;9.978;2023-02-01T07:00:05;4.40;99.90
15241;DHT22;7723;52.170;9.978;2023-02-01T07:02:36;4.40;99.90
15241;DHT22;7723;52.170;9.978;2023-02-01T07:05:04;4.40;99.90
15241;DHT22;7723;52.170;9.978;2023-02-01T07:07:31;4.40;99.90
15241;DHT22;7723;52.170;9.978;2023-02-01T07:09:58;4.40;99.90
15241;DHT22;7723;52.170;9.978;2023-02-01T07:12:25;4.40;99.90
15241;DHT22;7723;52.170;9.978;2023-02-01T07:14:53;4.40;99.90
15241;DHT22;7723;52.170;9.978;2023-02-01T07:17:22;4.40;99.90
15241;DHT22;7723;52.170;9.978;2023-02-01T07:19:49;4.40;99.90
15241;DHT22;7723;52.170;9.978;2023-02-01T07:22:16;4.40;99.90
15241;DHT22;7723;52.170;9.978;2023-02-01T07:24:43;4.40;99.90
15241;DHT22;7723;52.170;9.978;2023-02-01T07:27:10;4.40;99.90
15241;DHT22;7723;52.170;9.978;2023-02-01T07:29:37;4.40;99.90
15241;DHT22;7723;52.170;9.978;2023-02-01T07:32:06;4.40;99.90
15241;DHT22;7723;52.170;9.978;2023-02-01T07:34:33;4.40;99.90
15241;DHT22;7723;52.170;9.978;2023-02-01T07:37:00;4.40;99.90
15241;DHT22;7723;52.170;9.978;2023-02-01T07:39:28;4.40;99.90
15241;DHT22;7723;52.170;9.978;2023-02-01T07:41:57;4.40;99.90
15241;DHT22;7723;52.170;9.978;2023-02-01T07:44:25;4.40;99.90
15241;DHT22;7723;52.170;9.978;2023-02-01T07:46:52;4.40;99.90
15241;DHT22;7723;52.170;9.978;2023-02-01T07:49:20;4.40;99.90
15241;DHT22;7723;52.170;9.978;2023-02-01T07:51:47;4.50;99.90
15241;DHT22;7723;52.170;9.978;2023-02-01T07:54:14;4.50;99.90
15241;DHT22;7723;52.170;9.978;2023-02-01T07:56:42;4.60;99.90
15241;DHT22;7723;52.170;9.978;2023-02-01T07:59:09;4.70;99.90
15241;DHT22;7723;52.170;9.978;2023-02-01T08:01:37;4.80;99.90
15241;DHT22;7723;52.170;9.978;2023-02-01T08:04:03;5.00;99.90
15241;DHT22;7723;52.170;9.978;2023-02-01T08:06:33;5.10;99.90
15241;DHT22;7723;52.170;9.978;2023-02-01T08:09:00;5.10;99.90
15241;DHT22;7723;52.170;9.978;2023-02-01T08:11:28;5.20;99.90
15241;DHT22;7723;52.170;9.978;2023-02-01T08:13:55;5.20;99.90
15241;DHT22;7723;52.170;9.978;2023-02-01T08:16:23;5.20;99.90
15241;DHT22;7723;52.170;9.978;2023-02-01T08:18:51;5.30;99.90
15241;DHT22;7723;52.170;9.978;2023-02-01T08:21:21;5.30;99.90
15241;DHT22;7723;52.170;9.978;2023-02-01T08:23:50;5.30;99.90
15241;DHT22;7723;52.170;9.978;2023-02-01T08:26:19;5.40;99.90
15241;DHT22;7723;52.170;9.978;2023-02-01T08:28:48;5.40;99.90
15241;DHT22;7723;52.170;9.978;2023-02-01T08:31:17;5.40;99.90
15241;DHT22;7723;52.170;9.978;2023-02-01T08:33:50;5.40;99.90
15241;DHT22;7723;52.170;9.978;2023-02-01T08:36:18;5.40;99.90
15241;DHT22;7723;52.170;9.978;2023-02-01T08:38:45;5.40;99.90
15241;DHT22;7723;52.170;9.978;2023-02-01T08:41:15;5.40;99.90
15241;DHT22;7723;52.170;9.978;2023-02-01T08:43:43;5.50;99.90
15241;DHT22;7723;52.170;9.978;2023-02-01T08:46:10;5.50;99.90
15241;DHT22;7723;52.170;9.978;2023-02-01T08:48:38;5.50;99.90
15241;DHT22;7723;52.170;9.978;2023-02-01T08:51:07;5.60;99.90
15241;DHT22;7723;52.170;9.978;2023-02-01T08:53:34;5.60;99.90
15241;DHT22;7723;52.170;9.978;2023-02-01T08:56:01;5.70;99.90
15241;DHT22;7723;52.170;9.978;2023-02-01T08:58:30;5.70;99.90
15241;DHT22;7723;52.170;9.978;2023-02-01T09:01:01;5.80;99.90
15241;DHT22;7723;52.170;9.978;2023-02-01T09:03:28;5.80;99.90
15241;DHT22;7723;52.170;9.978;2023-02-01T09:06:00;5.80;99.90
15241;DHT22;7723;52.170;9.978;2023-02-01T09:08:27;5.80;99.90
15241;DHT22;7723;52.170;9.978;2023-02-01T09:10:58;5.90;99.90
15241;DHT22;7723;52.170;9.978;2023-02-01T09:13:25;5.90;99.90
15241;DHT22;7723;52.170;9.978;2023-02-01T09:15:54;6.30;99.90
15241;DHT22;7723;52.170;9.978;2023-02-01T09:18:21;6.40;99.90
15241;DHT22;7723;52.170;9.978;2023-02-01T09:20:48;6.40;99.90
15241;DHT22;7723;52.170;9.978;2023-02-01T09:23:15;6.50;99.90
15241;DHT22;7723;52.170;9.978;2023-02-01T09:25:43;6.60;99.90
15241;DHT22;7723;52.170;9.978;2023-02-01T09:28:10;6.70;99.90
15241;DHT22;7723;52.170;9.978;2023-02-01T09:30:38;6.70;99.90
15241;DHT22;7723;52.170;9.978;2023-02-01T09:33:06;6.70;99.90
15241;DHT22;7723;52.170;9.978;2023-02-01T09:35:34;6.60;99.90
15241;DHT22;7723;52.170;9.978;2023-02-01T09:38:01;6.50;99.90
15241;DHT22;7723;52.170;9.978;2023-02-01T09:40:28;6.50;99.90
15241;DHT22;7723;52.170;9.978;2023-02-01T09:43:09;6.40;99.90
15241;DHT22;7723;52.170;9.978;2023-02-01T09:45:44;6.40;99.90
15241;DHT22;7723;52.170;9.978;2023-02-01T09:48:19;6.40;99.90
15241;DHT22;7723;52.170;9.978;2023-02-01T09:50:50;6.30;99.90
15241;DHT22;7723;52.170;9.978;2023-02-01T09:53:23;6.40;99.90
15241;DHT22;7723;52.170;9.978;2023-02-01T09:55:55;6.40;99.90
15241;DHT22;7723;52.170;9.978;2023-02-01T09:58:29;6.40;99.90
15241;DHT22;7723;52.170;9.978;2023-02-01T10:00:59;6.40;99.90
15241;DHT22;7723;52.170;9.978;2023-02-01T10:03:31;6.40;99.90
15241;DHT22;7723;52.170;9.978;2023-02-01T10:06:09;6.50;99.90
15241;DHT22;7723;52.170;9.978;2023-02-01T10:08:56;6.50;99.90
15241;DHT22;7723;52.170;9.978;2023-02-01T10:11:32;6.50;99.90
15241;DHT22;7723;52.170;9.978;2023-02-01T10:14:25;6.50;99.90
15241;DHT22;7723;52.170;9.978;2023-02-01T10:17:00;6.60;99.90
15241;DHT22;7723;52.170;9.978;2023-02-01T10:19:38;6.70;99.90
15241;DHT22;7723;52.170;9.978;2023-02-01T10:22:09;6.70;99.90
15241;DHT22;7723;52.170;9.978;2023-02-01T10:24:39;6.70;99.90
15241;DHT22;7723;52.170;9.978;2023-02-01T10:27:13;6.70;99.90
15241;DHT22;7723;52.170;9.978;2023-02-01T10:29:43;6.90;99.90
15241;DHT22;7723;52.170;9.978;2023-02-01T10:32:14;6.90;99.90
15241;DHT22;7723;52.170;9.978;2023-02-01T10:34:44;7.00;99.90
15241;DHT22;7723;52.170;9.978;2023-02-01T10:37:22;7.00;99.90
15241;DHT22;7723;52.170;9.978;2023-02-01T10:39:53;7.10;99.90
15241;DHT22;7723;52.170;9.978;2023-02-01T10:42:25;7.10;99.90
15241;DHT22;7723;52.170;9.978;2023-02-01T10:44:54;7.10;99.90
15241;DHT22;7723;52.170;9.978;2023-02-01T10:47:22;7.10;99.90
15241;DHT22;7723;52.170;9.978;2023-02-01T10:49:56;7.20;99.90
15241;DHT22;7723;52.170;9.978;2023-02-01T10:52:33;7.30;99.90
15241;DHT22;7723;52.170;9.978;2023-02-01T10:55:30;7.40;99.90
15241;DHT22;7723;52.170;9.978;2023-02-01T10:58:00;7.30;99.90
15241;DHT22;7723;52.170;9.978;2023-02-01T11:00:33;7.30;99.90
15241;DHT22;7723;52.170;9.978;2023-02-01T11:03:03;7.10;99.90
15241;DHT22;7723;52.170;9.978;2023-02-01T11:05:48;7.00;99.90
15241;DHT22;7723;52.170;9.978;2023-02-01T11:08:16;7.00;99.90
15241;DHT22;7723;52.170;9.978;2023-02-01T11:10:45;7.00;99.90
15241;DHT22;7723;52.170;9.978;2023-02-01T11:13:14;7.00;99.90
15241;DHT22;7723;52.170;9.978;2023-02-01T11:15:46;7.00;99.90
15241;DHT22;7723;52.170;9.978;2023-02-01T11:18:17;6.90;99.90
15241;DHT22;7723;52.170;9.978;2023-02-01T11:20:46;6.90;99.90
15241;DHT22;7723;52.170;9.978;2023-02-01T11:23:20;6.90;99.90
15241;DHT22;7723;52.170;9.978;2023-02-01T11:25:49;6.80;99.90
15241;DHT22;7723;52.170;9.978;2023-02-01T11:28:19;6.80;99.90
15241;DHT22;7723;52.170;9.978;2023-02-01T11:30:48;6.80;99.90
15241;DHT22;7723;52.170;9.978;2023-02-01T11:33:17;6.80;99.90
15241;DHT22;7723;52.170;9.978;2023-02-01T11:35:48;6.80;99.90
15241;DHT22;7723;52.170;9.978;2023-02-01T11:38:21;6.80;99.90
15241;DHT22;7723;52.170;9.978;2023-02-01T11:40:49;6.80;99.90
15241;DHT22;7723;52.170;9.978;2023-02-01T11:43:22;6.80;99.90
15241;DHT22;7723;52.170;9.978;2023-02-01T11:45:55;6.80;99.90
15241;DHT22;7723;52.170;9.978;2023-02-01T11:48:24;6.90;99.90
15241;DHT22;7723;52.170;9.978;2023-02-01T11:51:08;6.80;99.90
15241;DHT22;7723;52.170;9.978;2023-02-01T11:54:02;6.80;99.90
15241;DHT22;7723;52.170;9.978;2023-02-01T11:56:36;6.70;99.90
15241;DHT22;7723;52.170;9.978;2023-02-01T11:59:22;6.70;99.90
15241;DHT22;7723;52.170;9.978;2023-02-01T12:02:08;6.70;99.90
15241;DHT22;7723;52.170;9.978;2023-02-01T12:05:02;6.70;99.90
15241;DHT22;7723;52.170;9.978;2023-02-01T12:07:46;6.70;99.90
15241;DHT22;7723;52.170;9.978;2023-02-01T12:10:25;6.80;99.90
15241;DHT22;7723;52.170;9.978;2023-02-01T12:13:03;6.80;99.90
15241;DHT22;7723;52.170;9.978;2023-02-01T12:15:45;6.90;99.90
15241;DHT22;7723;52.170;9.978;2023-02-01T12:18:33;6.80;99.90
15241;DHT22;7723;52.170;9.978;2023-02-01T12:21:17;6.70;99.90
15241;DHT22;7723;52.170;9.978;2023-02-01T12:24:11;6.70;99.90
15241;DHT22;7723;52.170;9.978;2023-02-01T12:26:50;6.70;99.90
15241;DHT22;7723;52.170;9.978;2023-02-01T12:29:34;6.80;99.90
15241;DHT22;7723;52.170;9.978;2023-02-01T12:32:15;6.80;99.90
15241;DHT22;7723;52.170;9.978;2023-02-01T12:35:02;7.00;99.90
15241;DHT22;7723;52.170;9.978;2023-02-01T12:37:47;7.10;99.90
15241;DHT22;7723;52.170;9.978;2023-02-01T12:40:34;7.20;99.90
15241;DHT22;7723;52.170;9.978;2023-02-01T12:43:09;7.10;99.90
15241;DHT22;7723;52.170;9.978;2023-02-01T12:45:44;7.00;99.90
15241;DHT22;7723;52.170;9.978;2023-02-01T12:48:28;7.00;99.90
15241;DHT22;7723;52.170;9.978;2023-02-01T12:51:01;6.90;99.90
15241;DHT22;7723;52.170;9.978;2023-02-01T12:53:35;6.80;99.90
15241;DHT22;7723;52.170;9.978;2023-02-01T12:56:09;6.50;99.90
15241;DHT22;7723;52.170;9.978;2023-02-01T12:58:42;6.30;99.90
15241;DHT22;7723;52.170;9.978;2023-02-01T13:01:15;6.10;99.90
15241;DHT22;7723;52.170;9.978;2023-02-01T13:03:53;6.10;99.90
15241;DHT22;7723;52.170;9.978;2023-02-01T13:06:24;6.00;99.90
15241;DHT22;7723;52.170;9.978;2023-02-01T13:08:58;6.00;99.90
15241;DHT22;7723;52.170;9.978;2023-02-01T13:11:31;6.10;99.90
15241;DHT22;7723;52.170;9.978;2023-02-01T13:14:02;6.20;99.90
15241;DHT22;7723;52.170;9.978;2023-02-01T13:16:32;6.20;99.90
15241;DHT22;7723;52.170;9.978;2023-02-01T13:19:08;6.30;99.90
15241;DHT22;7723;52.170;9.978;2023-02-01T13:21:40;6.30;99.90
15241;DHT22;7723;52.170;9.978;2023-02-01T13:24:21;6.30;99.90
15241;DHT22;7723;52.170;9.978;2023-02-01T13:26:55;6.20;99.90
15241;DHT22;7723;52.170;9.978;2023-02-01T13:29:23;6.20;99.90
15241;DHT22;7723;52.170;9.978;2023-02-01T13:32:02;6.10;99.90
15241;DHT22;7723;52.170;9.978;2023-02-01T13:35:14;6.00;99.90
15241;DHT22;7723;52.170;9.978;2023-02-01T13:38:07;5.90;99.90
15241;DHT22;7723;52.170;9.978;2023-02-01T13:40:40;5.80;99.90
15241;DHT22;7723;52.170;9.978;2023-02-01T13:43:13;5.70;99.90
15241;DHT22;7723;52.170;9.978;2023-02-01T13:45:46;5.60;99.90
15241;DHT22;7723;52.170;9.978;2023-02-01T13:48:21;5.50;99.90
15241;DHT22;7723;52.170;9.978;2023-02-01T13:50:53;5.40;99.90
15241;DHT22;7723;52.170;9.978;2023-02-01T13:53:29;5.30;99.90
15241;DHT22;7723;52.170;9.978;2023-02-01T13:55:59;5.20;99.90
15241;DHT22;7723;52.170;9.978;2023-02-01T13:58:34;5.10;99.90
15241;DHT22;7723;52.170;9.978;2023-02-01T14:04:02;5.00;99.90
15241;DHT22;7723;52.170;9.978;2023-02-01T14:06:44;4.60;99.90
15241;DHT22;7723;52.170;9.978;2023-02-01T14:09:18;3.60;99.90
15241;DHT22;7723;52.170;9.978;2023-02-01T14:11:48;3.00;99.90
15241;DHT22;7723;52.170;9.978;2023-02-01T14:17:33;2.70;99.90
15241;DHT22;7723;52.170;9.978;2023-02-01T14:23:21;1.80;99.90
15241;DHT22;7723;52.170;9.978;2023-02-01T14:26:04;1.70;99.90
15241;DHT22;7723;52.170;9.978;2023-02-01T14:28:36;1.70;99.90
15241;DHT22;7723;52.170;9.978;2023-02-01T14:31:16;1.70;99.90
15241;DHT22;7723;52.170;9.978;2023-02-01T14:33:45;1.70;99.90
15241;DHT22;7723;52.170;9.978;2023-02-01T14:36:14;1.70;99.90
15241;DHT22;7723;52.170;9.978;2023-02-01T14:38:48;1.80;99.90
15241;DHT22;7723;52.170;9.978;2023-02-01T14:41:31;1.90;99.90
15241;DHT22;7723;52.170;9.978;2023-02-01T14:44:24;2.10;99.90
15241;DHT22;7723;52.170;9.978;2023-02-01T14:47:25;2.20;99.90
15241;DHT22;7723;52.170;9.978;2023-02-01T14:50:23;2.20;99.90
15241;DHT22;7723;52.170;9.978;2023-02-01T14:53:06;2.30;99.90
15241;DHT22;7723;52.170;9.978;2023-02-01T14:55:40;2.40;99.90
15241;DHT22;7723;52.170;9.978;2023-02-01T14:58:16;2.50;99.90
15241;DHT22;7723;52.170;9.978;2023-02-01T15:00:49;2.60;99.90
15241;DHT22;7723;52.170;9.978;2023-02-01T15:03:32;2.70;99.90
15241;DHT22;7723;52.170;9.978;2023-02-01T15:06:03;2.80;99.90
15241;DHT22;7723;52.170;9.978;2023-02-01T15:08:33;2.90;99.90
15241;DHT22;7723;52.170;9.978;2023-02-01T15:11:06;3.10;99.90
15241;DHT22;7723;52.170;9.978;2023-02-01T15:13:35;3.10;99.90
15241;DHT22;7723;52.170;9.978;2023-02-01T15:16:05;3.10;99.90
15241;DHT22;7723;52.170;9.978;2023-02-01T15:18:32;3.30;99.90
15241;DHT22;7723;52.170;9.978;2023-02-01T15:21:02;3.30;99.90
15241;DHT22;7723;52.170;9.978;2023-02-01T15:23:30;3.30;99.90
15241;DHT22;7723;52.170;9.978;2023-02-01T15:25:58;3.40;99.90
15241;DHT22;7723;52.170;9.978;2023-02-01T15:28:26;3.40;99.90
15241;DHT22;7723;52.170;9.978;2023-02-01T15:30:56;3.40;99.90
15241;DHT22;7723;52.170;9.978;2023-02-01T15:33:24;3.40;99.90
15241;DHT22;7723;52.170;9.978;2023-02-01T15:35:52;3.40;99.90
15241;DHT22;7723;52.170;9.978;2023-02-01T15:38:36;3.40;99.90
15241;DHT22;7723;52.170;9.978;2023-02-01T15:41:07;3.40;99.90
15241;DHT22;7723;52.170;9.978;2023-02-01T15:43:39;3.40;99.90
15241;DHT22;7723;52.170;9.978;2023-02-01T15:46:10;3.30;99.90
15241;DHT22;7723;52.170;9.978;2023-02-01T15:48:45;3.30;99.90
15241;DHT22;7723;52.170;9.978;2023-02-01T15:51:14;3.30;99.90
15241;DHT22;7723;52.170;9.978;2023-02-01T15:53:47;3.30;99.90
15241;DHT22;7723;52.170;9.978;2023-02-01T15:56:15;3.30;99.90
15241;DHT22;7723;52.170;9.978;2023-02-01T15:58:50;3.20;99.90
15241;DHT22;7723;52.170;9.978;2023-02-01T16:01:18;3.20;99.90
15241;DHT22;7723;52.170;9.978;2023-02-01T16:03:46;3.10;99.90
15241;DHT22;7723;52.170;9.978;2023-02-01T16:06:27;3.10;99.90
15241;DHT22;7723;52.170;9.978;2023-02-01T16:09:03;3.10;99.90
15241;DHT22;7723;52.170;9.978;2023-02-01T16:11:42;3.10;99.90
15241;DHT22;7723;52.170;9.978;2023-02-01T16:14:13;3.10;99.90
15241;DHT22;7723;52.170;9.978;2023-02-01T16:16:41;3.30;99.90
15241;DHT22;7723;52.170;9.978;2023-02-01T16:19:08;3.30;99.90
15241;DHT22;7723;52.170;9.978;2023-02-01T16:21:35;3.30;99.90
15241;DHT22;7723;52.170;9.978;2023-02-01T16:24:05;3.50;99.90
15241;DHT22;7723;52.170;9.978;2023-02-01T16:26:32;3.50;99.90
15241;DHT22;7723;52.170;9.978;2023-02-01T16:29:00;3.60;99.90
15241;DHT22;7723;52.170;9.978;2023-02-01T16:31:34;3.60;99.90
15241;DHT22;7723;52.170;9.978;2023-02-01T16:34:02;3.60;99.90
15241;DHT22;7723;52.170;9.978;2023-02-01T16:36:31;3.60;99.90
15241;DHT22;7723;52.170;9.978;2023-02-01T16:38:58;3.60;99.90
15241;DHT22;7723;52.170;9.978;2023-02-01T16:41:27;3.60;99.90
15241;DHT22;7723;52.170;9.978;2023-02-01T16:43:55;3.60;99.90